Santa Monica, CA (90410)

11:37 PM PDT on July 25, 2016 (GMT -0700)
Sunset Park | | Change Station

Elev 150 ft 34.01 °N, 118.47 °W | Updated 14 minutes ago

Overcast
Overcast
67.6 °F
Feels Like 67.6 °F
N
0.0
Wind Variable Wind from WSW
Gusts 3.0 mph

Today
High -- | Low -- °F
--% Chance of Precip.
Yesterday
High -- | Low -- °F
Precip. -- in
Pressure 29.92 in
Visibility 9.0 miles
Clouds Overcast 500 ft
Dew Point 65 °F
Humidity 91%
Rainfall 0.00 in
Snow Depth Not available.
6:00 AM 7:59 PM
Waning Gibbous, 58% visible
SPECI KSMO 260622Z AUTO 25005KT 9SM OVC005 20/18 A2992 RMK AO2 T02000178
Pressure 29.92 in
Visibility 9.0 miles
Clouds Overcast 500 ft
Dew Point 65 °F
Humidity 91%
Rainfall 0.00 in
Snow Depth Not available.
6:00 AM 7:59 PM
Waning Gibbous, 58% visible
SPECI KSMO 260622Z AUTO 25005KT 9SM OVC005 20/18 A2992 RMK AO2 T02000178

10-Day Weather Forecast

Almanac

Astronomy

Jul. 25, 2016 Rise Set
Actual Time
Civil Twilight
Nautical Twilight
Astronomical Twilight
Moon
Length of Visible Light
Length of Day
Tomorrow will be .
, % of the Moon is Illuminated

Today's Extremes

State Highs State Lows

Community

WunderPhotos

Upload Photos

1,927,551 photos uploaded!

WunderBlog® & News

Nearby

Air Quality

  Air Quality AQ Index Pollutant
Not available.

Snow Depth

Station Depth Elevation

Earthquake Activity

City Distance Mag. Time & Date
Minimum magnitude displayed is 2.5.

Coastal Water Temperatures

Place Temperature

Stations

Nearby Weather Stations

Station Location Temp. Windchill Dew Point Humidity Wind Precip. Elev Updated Type
                   

Watches & Warnings

There are currently no watches in effect.